For water level readings from Victoria harbour, visit our Tides page.

DISCLAIMER: Although GVHA takes care to produce accurate readings from Ogden Point, the weather information on this site is raw data fed directly from sensors. It does not go through the same quality control processes used by professional weather services, and should not be relied on as a sole source of weather information for Victoria harbour.

In-depth weather values from Victoria Harbour can be found on the Environment Canada website.

Location: Ogden Point Breakwater

Current time: Feb 25, 2020 1:27 PM GMT | Feb 25, 2020 5:27 AM

Last Hour Last 3 Hours Last 6 Hours Last 12 Hours
Time Peak Wind Speed Avg Speed Avg Direction Avg Air Temp Avg Dew Point Avg Humidity
Feb 25, 2020 05:20 AM 8.1 knots 6.7 knots 350° True 3.3° C / 36.6° F 0.5° C / 31° F 82.1%
Feb 25, 2020 05:10 AM 8.5 knots 7.6 knots 348° True 3.2° C / 36.4° F 0.5° C / 31° F 82.4%
Feb 25, 2020 05:00 AM 7.8 knots 6.9 knots 357° True 3.3° C / 36.6° F 0.5° C / 31° F 81.4%
Feb 25, 2020 04:50 AM 7.6 knots 6.2 knots 358° True 3.4° C / 36.8° F 0.3° C / 30.6° F 80.3%
Feb 25, 2020 04:40 AM 6.7 knots 5.6 knots 13° True 3° C / 36° F 0.3° C / 30.6° F 82%
Feb 25, 2020 04:30 AM 7.7 knots 6.9 knots 9° True 2.9° C / 35.8° F 0° C / 30° F 81%
Feb 25, 2020 04:20 AM 7.4 knots 6.4 knots 355° True 3° C / 36° F 0° C / 30° F 80.2%
Feb 25, 2020 04:10 AM 8.2 knots 7.1 knots 10° True 2.9° C / 35.8° F -0.2° C / 29.6° F 80%
Feb 25, 2020 04:00 AM 7.1 knots 6.2 knots 10° True 3.1° C / 36.2° F 0° C / 30° F 80.3%
Feb 25, 2020 03:50 AM 7.4 knots 5.9 knots 10° True 3.1° C / 36.2° F -0.1° C / 29.8° F 79.3%
Feb 25, 2020 03:40 AM 7.3 knots 5.7 knots 9° True 3.1° C / 36.2° F -0.3° C / 29.4° F 78.2%
Feb 25, 2020 03:30 AM 6.9 knots 5 knots 6° True 3.3° C / 36.6° F -0.5° C / 29° F 76.6%
Feb 25, 2020 03:20 AM 6.1 knots 5 knots 359° True 3.3° C / 36.6° F -0.5° C / 29° F 76.2%
Feb 25, 2020 03:10 AM 6.4 knots 5 knots 1° True 3.3° C / 36.6° F -0.5° C / 29° F 76%
Feb 25, 2020 03:00 AM 6.6 knots 5.1 knots 4° True 3.4° C / 36.8° F -0.4° C / 29.2° F 76%
Feb 25, 2020 02:50 AM 7.2 knots 6.1 knots 358° True 3.5° C / 37° F -0.4° C / 29.2° F 75.6%
Feb 25, 2020 02:40 AM 6.6 knots 5.2 knots 6° True 3.6° C / 37.2° F -0.4° C / 29.2° F 75%
Feb 25, 2020 02:30 AM 6 knots 5.2 knots 6° True 3.7° C / 37.4° F -0.4° C / 29.2° F 74.8%
Feb 25, 2020 02:20 AM 6.9 knots 5.9 knots 356° True 3.7° C / 37.4° F -0.6° C / 28.8° F 73.8%
Feb 25, 2020 02:10 AM 6.1 knots 5.3 knots 9° True 3.8° C / 37.6° F -0.5° C / 29° F 73.4%
Feb 25, 2020 02:00 AM 6 knots 5.3 knots 354° True 4.1° C / 38.2° F -0.4° C / 29.2° F 72.7%
Feb 25, 2020 01:50 AM 5.5 knots 4.7 knots 354° True 4.1° C / 38.2° F -0.6° C / 28.8° F 71.3%
Feb 25, 2020 01:40 AM 5.4 knots 4.6 knots 355° True 4.2° C / 38.4° F -0.6° C / 28.8° F 71.1%
Feb 25, 2020 01:30 AM 4.5 knots 3.9 knots 334° True 4.3° C / 38.6° F -0.5° C / 29° F 71%
Feb 25, 2020 01:20 AM 5.1 knots 4.3 knots 338° True 4.3° C / 38.6° F -0.6° C / 28.8° F 70.3%
Feb 25, 2020 01:10 AM 5.1 knots 4.7 knots 344° True 4.4° C / 38.8° F -0.7° C / 28.6° F 69.5%
Feb 25, 2020 01:00 AM 5.4 knots 4.5 knots 5° True 4.4° C / 38.8° F -0.9° C / 28.2° F 67.9%
Feb 25, 2020 12:50 AM 6 knots 5.3 knots 10° True 4.5° C / 39° F -1.3° C / 27.4° F 65.9%
Feb 25, 2020 12:40 AM 6.4 knots 5 knots 9° True 4.4° C / 38.8° F -1.2° C / 27.6° F 66.7%
Feb 25, 2020 12:30 AM 5.6 knots 4.6 knots 10° True 4.5° C / 39° F -1° C / 28° F 67.4%
Feb 25, 2020 12:20 AM 5.7 knots 4.8 knots 2° True 4.6° C / 39.2° F -1.2° C / 27.6° F 66.2%
Feb 25, 2020 12:10 AM 6.1 knots 5.2 knots 358° True 4.6° C / 39.2° F -1.3° C / 27.4° F 65.4%
Feb 25, 2020 12:00 AM 5 knots 3.8 knots 349° True 4.6° C / 39.2° F -1.1° C / 27.8° F 66.2%
Feb 24, 2020 11:50 PM 5 knots 4.1 knots 328° True 4.6° C / 39.2° F -1.4° C / 27.2° F 65.1%
Feb 24, 2020 11:40 PM 5.5 knots 4.7 knots 341° True 4.6° C / 39.2° F -1° C / 28° F 67%
Feb 24, 2020 11:30 PM 5.6 knots 4.9 knots 348° True 4.6° C / 39.2° F -1.1° C / 27.8° F 66.6%
Feb 24, 2020 11:20 PM 5.4 knots 4.4 knots 350° True 4.7° C / 39.4° F -1.1° C / 27.8° F 66.4%
Feb 24, 2020 11:10 PM 5.7 knots 4.8 knots 342° True 4.6° C / 39.2° F -1.2° C / 27.6° F 65.9%
Feb 24, 2020 11:00 PM 5.9 knots 4.8 knots 351° True 4.6° C / 39.2° F -1.1° C / 27.8° F 66.7%
Feb 24, 2020 10:50 PM 5.9 knots 4.9 knots 4° True 4.6° C / 39.2° F -1° C / 28° F 66.9%
Feb 24, 2020 10:40 PM 5.5 knots 4.6 knots 6° True 4.7° C / 39.4° F -1° C / 28° F 66.5%
Feb 24, 2020 10:30 PM 4.8 knots 3.9 knots 344° True 4.7° C / 39.4° F -1.5° C / 27° F 63.9%
Feb 24, 2020 10:20 PM 5.1 knots 4.2 knots 347° True 4.7° C / 39.4° F -1.6° C / 26.8° F 63.4%
Feb 24, 2020 10:10 PM 4.9 knots 4 knots 336° True 4.7° C / 39.4° F -1.3° C / 27.4° F 64.9%
Feb 24, 2020 10:00 PM 5.8 knots 4.7 knots 336° True 4.7° C / 39.4° F -1.3° C / 27.4° F 64.7%
Feb 24, 2020 09:50 PM 7.2 knots 5.8 knots 339° True 4.8° C / 39.6° F -1.3° C / 27.4° F 64.3%
Feb 24, 2020 09:40 PM 5.9 knots 4.5 knots 317° True 4.8° C / 39.6° F -1.4° C / 27.2° F 64.1%
Feb 24, 2020 09:30 PM 7.8 knots 6.1 knots 329° True 4.9° C / 39.8° F -1.2° C / 27.6° F 64.4%
Feb 24, 2020 09:20 PM 7.7 knots 5.6 knots 325° True 4.9° C / 39.8° F -1.4° C / 27.2° F 64.1%
Feb 24, 2020 09:10 PM 6.9 knots 5.5 knots 323° True 4.9° C / 39.8° F -1.4° C / 27.2° F 63.7%
Feb 24, 2020 09:00 PM 6.9 knots 5.7 knots 320° True 4.9° C / 39.8° F -1.3° C / 27.4° F 64.3%
Feb 24, 2020 08:50 PM 6.9 knots 5.5 knots 321° True 5° C / 40° F -1° C / 28° F 65.2%
Feb 24, 2020 08:40 PM 7.4 knots 6 knots 334° True 5° C / 40° F -0.9° C / 28.2° F 65.3%
Feb 24, 2020 08:30 PM 7.5 knots 6.5 knots 350° True 5.1° C / 40.2° F -0.7° C / 28.6° F 66.3%
Feb 24, 2020 08:20 PM 8 knots 6.4 knots 7° True 5.1° C / 40.2° F -0.7° C / 28.6° F 66%
Feb 24, 2020 08:10 PM 8.9 knots 7.4 knots 356° True 5.1° C / 40.2° F -0.9° C / 28.2° F 65%
Feb 24, 2020 08:00 PM 8.4 knots 7.2 knots 331° True 5.1° C / 40.2° F -1° C / 28° F 64.7%
Feb 24, 2020 07:50 PM 9.2 knots 7.7 knots 325° True 5.2° C / 40.4° F -1° C / 28° F 64.4%
Feb 24, 2020 07:40 PM 9.2 knots 7.7 knots 325° True 5.2° C / 40.4° F -1° C / 28° F 64.2%
Feb 24, 2020 07:30 PM 8.8 knots 7.6 knots 327° True 5.4° C / 40.8° F -0.6° C / 28.8° F 64.9%
Feb 24, 2020 07:20 PM 9.6 knots 7.9 knots 333° True 5.6° C / 41.2° F -0.7° C / 28.6° F 63.8%
Feb 24, 2020 07:10 PM 10.5 knots 8.8 knots 343° True 5.6° C / 41.2° F -0.7° C / 28.6° F 63.5%
Feb 24, 2020 07:00 PM 10.5 knots 8.8 knots 340° True 5.7° C / 41.4° F -0.9° C / 28.2° F 62.5%
Feb 24, 2020 06:50 PM 10.2 knots 8.3 knots 335° True 5.7° C / 41.4° F -1° C / 28° F 61.9%
Feb 24, 2020 06:40 PM 9.2 knots 7.6 knots 346° True 5.8° C / 41.6° F -0.9° C / 28.2° F 61.9%
Feb 24, 2020 06:30 PM 10.7 knots 9.3 knots 358° True 5.9° C / 41.8° F -1.1° C / 27.8° F 60.9%
Feb 24, 2020 06:20 PM 11.4 knots 9.3 knots 360° True 6° C / 42° F -0.8° C / 28.4° F 61.6%
Feb 24, 2020 06:10 PM 10.5 knots 8.3 knots 353° True 6.1° C / 42.2° F -0.8° C / 28.4° F 61.2%
Feb 24, 2020 06:00 PM 10.5 knots 8.4 knots 345° True 6.2° C / 42.4° F -0.8° C / 28.4° F 60.9%
Feb 24, 2020 05:50 PM 9.7 knots 7.6 knots 330° True 6.3° C / 42.6° F -0.8° C / 28.4° F 60.2%
Feb 24, 2020 05:40 PM 8.9 knots 7.4 knots 320° True 6.5° C / 43° F -0.9° C / 28.2° F 59.2%
Feb 24, 2020 05:30 PM 9.7 knots 7.2 knots 337° True 6.7° C / 43.4° F -1.2° C / 27.6° F 57.1%